createdAt,value
2022-10-11T00:00:22.277Z,73.02
2022-10-11T00:02:49.917Z,73.10
2022-10-11T00:05:17.061Z,73.18
2022-10-11T00:07:44.081Z,73.17
2022-10-11T00:10:10.779Z,73.17
2022-10-11T00:12:37.572Z,73.25
2022-10-11T00:15:05.406Z,73.41
2022-10-11T00:17:32.372Z,73.43
2022-10-11T00:19:59.245Z,73.44
2022-10-11T00:22:25.924Z,73.39
2022-10-11T00:24:53.033Z,73.36
2022-10-11T00:27:19.649Z,73.16
2022-10-11T00:29:46.481Z,73.31
2022-10-11T00:32:13.752Z,73.13
2022-10-11T00:34:40.508Z,73.10
2022-10-11T00:37:08.964Z,73.09
2022-10-11T00:39:36.254Z,73.04
2022-10-11T00:42:03.109Z,73.04
2022-10-11T00:44:31.849Z,73.16
2022-10-11T00:47:10.669Z,73.51
2022-10-11T00:49:39.903Z,73.49
2022-10-11T00:52:29.209Z,73.37
2022-10-11T00:54:56.021Z,73.59
2022-10-11T00:57:23.244Z,73.85
2022-10-11T00:59:51.096Z,74.14
2022-10-11T01:02:17.956Z,74.02
2022-10-11T01:04:44.851Z,74.16
2022-10-11T01:07:12.901Z,74.21
2022-10-11T01:09:39.621Z,74.06
2022-10-11T01:12:11.831Z,74.08
2022-10-11T01:15:10.121Z,74.16
2022-10-11T01:17:52.250Z,74.15
2022-10-11T01:20:24.292Z,74.09
2022-10-11T01:23:32.684Z,74.12
2022-10-11T01:26:27.419Z,74.02
2022-10-11T01:28:57.182Z,73.99
2022-10-11T01:31:28.778Z,74.19
2022-10-11T01:33:59.169Z,74.55
2022-10-11T01:36:34.360Z,74.51
2022-10-11T01:39:08.256Z,74.73
2022-10-11T01:41:38.221Z,74.65
2022-10-11T01:44:05.070Z,74.77
2022-10-11T01:46:31.848Z,74.48
2022-10-11T01:48:59.844Z,74.48
2022-10-11T01:51:47.108Z,74.43
2022-10-11T01:55:04.018Z,74.54
2022-10-11T01:57:35.382Z,74.24
2022-10-11T02:00:10.054Z,74.45
2022-10-11T02:02:54.111Z,74.48
2022-10-11T02:05:43.058Z,74.54
2022-10-11T02:08:25.435Z,74.30
2022-10-11T02:10:54.323Z,74.49
2022-10-11T02:13:27.829Z,74.52
2022-10-11T02:15:54.639Z,74.56
2022-10-11T02:18:23.728Z,74.57
2022-10-11T02:20:50.441Z,74.55
2022-10-11T02:23:51.269Z,74.93
2022-10-11T02:26:18.104Z,74.86
2022-10-11T02:28:44.874Z,75.04
2022-10-11T02:31:11.679Z,74.62
2022-10-11T02:33:46.070Z,74.57
2022-10-11T02:36:16.334Z,74.16
2022-10-11T02:38:49.331Z,74.21
2022-10-11T02:41:23.188Z,74.04
2022-10-11T02:43:57.363Z,74.34
2022-10-11T02:46:24.499Z,74.52
2022-10-11T02:48:51.319Z,74.60
2022-10-11T02:51:18.190Z,74.66
2022-10-11T02:53:45.129Z,74.64
2022-10-11T02:56:11.892Z,74.71
2022-10-11T02:58:38.667Z,74.43
2022-10-11T03:01:06.600Z,74.20
2022-10-11T03:03:33.502Z,73.75
2022-10-11T03:06:01.104Z,73.80
2022-10-11T03:08:28.316Z,73.83
2022-10-11T03:10:55.034Z,73.50
2022-10-11T03:13:21.859Z,73.69
2022-10-11T03:16:02.315Z,73.64
2022-10-11T03:18:30.653Z,73.43
2022-10-11T03:20:57.327Z,73.53
2022-10-11T03:23:24.000Z,73.71
2022-10-11T03:25:52.054Z,73.44
2022-10-11T03:28:19.343Z,73.66
2022-10-11T03:30:49.946Z,73.85
2022-10-11T03:33:17.248Z,73.91
2022-10-11T03:35:44.975Z,74.10
2022-10-11T03:38:13.183Z,74.10
2022-10-11T03:40:41.177Z,74.08
2022-10-11T03:43:07.862Z,74.11
2022-10-11T03:45:34.780Z,73.83
2022-10-11T03:48:01.707Z,74.18
2022-10-11T03:50:28.665Z,74.04
2022-10-11T03:52:55.324Z,73.83
2022-10-11T03:55:21.998Z,73.96
2022-10-11T03:57:48.795Z,73.77
2022-10-11T04:00:15.641Z,73.55
2022-10-11T04:02:42.378Z,73.49
2022-10-11T04:05:09.345Z,73.42
2022-10-11T04:07:36.090Z,73.70
2022-10-11T04:10:02.908Z,73.96
2022-10-11T04:12:29.793Z,74.61
2022-10-11T04:14:56.495Z,74.74
2022-10-11T04:17:23.231Z,74.81
2022-10-11T04:19:50.060Z,74.95
2022-10-11T04:22:16.961Z,74.99
2022-10-11T04:24:43.621Z,75.35
2022-10-11T04:27:10.519Z,75.54
2022-10-11T04:29:37.514Z,75.50
2022-10-11T04:32:04.780Z,75.84
2022-10-11T04:34:31.528Z,75.75
2022-10-11T04:36:58.220Z,74.49
2022-10-11T04:39:25.059Z,73.55
2022-10-11T04:41:51.995Z,73.04
2022-10-11T04:44:18.816Z,72.34
2022-10-11T04:46:45.553Z,70.54
2022-10-11T04:49:12.291Z,68.66
2022-10-11T04:51:39.146Z,66.55
2022-10-11T04:54:06.095Z,65.05
2022-10-11T04:56:33.148Z,62.86
2022-10-11T04:58:59.889Z,60.70
2022-10-11T05:01:26.663Z,58.65
2022-10-11T05:03:53.848Z,56.82
2022-10-11T05:06:20.521Z,55.11
2022-10-11T05:08:47.377Z,53.44
2022-10-11T05:11:15.987Z,52.31
2022-10-11T05:13:43.339Z,51.55
2022-10-11T05:16:11.438Z,50.79
2022-10-11T05:18:40.398Z,50.10
2022-10-11T05:21:09.697Z,49.83
2022-10-11T05:23:37.366Z,49.67
2022-10-11T05:26:04.748Z,50.09
2022-10-11T05:29:04.586Z,50.60
2022-10-11T05:31:31.507Z,51.51
2022-10-11T05:33:58.219Z,52.47
2022-10-11T05:36:25.913Z,53.33
2022-10-11T05:38:53.333Z,53.97
2022-10-11T05:41:20.569Z,54.71
2022-10-11T05:43:47.391Z,55.52
2022-10-11T05:46:14.382Z,56.17
2022-10-11T05:48:41.200Z,56.78
2022-10-11T05:51:09.878Z,56.92
2022-10-11T05:53:37.738Z,57.18
2022-10-11T05:56:05.245Z,57.64
2022-10-11T05:58:32.210Z,58.02
2022-10-11T06:00:59.025Z,58.27
2022-10-11T06:03:26.077Z,58.63
2022-10-11T06:05:56.800Z,59.24
2022-10-11T06:12:06.668Z,61.22
2022-10-11T06:14:33.671Z,61.61
2022-10-11T06:17:00.412Z,61.81
2022-10-11T06:19:27.356Z,61.46
2022-10-11T06:21:54.219Z,61.35
2022-10-11T06:24:20.996Z,61.46
2022-10-11T06:26:49.075Z,62.12
2022-10-11T06:29:15.885Z,62.17
2022-10-11T06:31:42.720Z,62.31
2022-10-11T06:34:09.627Z,62.54
2022-10-11T06:36:36.512Z,62.38
2022-10-11T06:39:03.432Z,61.86
2022-10-11T06:41:30.263Z,61.56
2022-10-11T06:43:57.612Z,61.64
2022-10-11T06:46:25.880Z,61.46
2022-10-11T06:48:52.628Z,61.66
2022-10-11T06:51:21.096Z,61.52
2022-10-11T06:53:55.836Z,61.20
2022-10-11T06:56:23.132Z,60.99
2022-10-11T06:58:51.354Z,60.79
2022-10-11T07:01:20.108Z,60.29
2022-10-11T07:03:47.508Z,59.86
2022-10-11T07:06:17.107Z,59.81
2022-10-11T07:08:43.992Z,59.69
2022-10-11T07:11:17.934Z,59.49
2022-10-11T07:13:49.259Z,59.21
2022-10-11T07:16:15.877Z,58.79
2022-10-11T07:18:42.572Z,58.47
2022-10-11T07:21:11.395Z,58.58
2022-10-11T07:23:38.361Z,58.74
2022-10-11T07:26:05.927Z,58.64
2022-10-11T07:28:33.358Z,58.28
2022-10-11T07:31:04.267Z,58.21
2022-10-11T07:33:30.953Z,58.25
2022-10-11T07:35:58.001Z,58.16
2022-10-11T07:38:25.067Z,57.84
2022-10-11T07:40:51.718Z,57.36
2022-10-11T07:43:18.388Z,56.68
2022-10-11T07:45:47.801Z,55.91
2022-10-11T07:48:15.054Z,55.15
2022-10-11T07:50:41.795Z,55.09
2022-10-11T07:53:09.116Z,54.41
2022-10-11T07:55:40.241Z,53.65
2022-10-11T07:58:08.286Z,52.47
2022-10-11T08:00:35.027Z,52.04
2022-10-11T08:03:05.617Z,51.69
2022-10-11T08:05:32.629Z,50.58
2022-10-11T08:07:59.380Z,50.12
2022-10-11T08:10:26.710Z,49.33
2022-10-11T08:12:58.601Z,48.74
2022-10-11T08:15:29.263Z,48.31
2022-10-11T08:17:55.909Z,47.22
2022-10-11T08:20:22.669Z,46.41
2022-10-11T08:22:49.362Z,46.11
2022-10-11T08:25:16.292Z,46.14
2022-10-11T08:27:43.264Z,45.61
2022-10-11T08:30:10.681Z,44.64
2022-10-11T08:32:37.405Z,44.59
2022-10-11T08:35:04.420Z,44.32
2022-10-11T08:38:50.589Z,43.74
2022-10-11T08:41:46.263Z,43.11
2022-10-11T08:44:37.338Z,42.64
2022-10-11T08:47:33.288Z,42.36
2022-10-11T08:50:45.101Z,41.83
2022-10-11T08:53:36.600Z,40.64
2022-10-11T08:56:03.749Z,40.92
2022-10-11T08:58:55.739Z,40.76
2022-10-11T09:01:24.158Z,40.39
2022-10-11T09:03:51.407Z,40.55
2022-10-11T09:06:24.828Z,40.53
2022-10-11T09:09:09.769Z,40.56
2022-10-11T09:11:58.985Z,39.99
2022-10-11T09:14:48.774Z,39.62
2022-10-11T09:17:49.872Z,38.64
2022-10-11T09:20:31.793Z,37.23
2022-10-11T09:23:19.710Z,37.92
2022-10-11T09:25:52.129Z,36.99
2022-10-11T09:28:50.663Z,36.35
2022-10-11T09:31:17.476Z,36.06
2022-10-11T09:33:48.928Z,35.80
2022-10-11T09:36:20.259Z,35.41
2022-10-11T09:39:26.014Z,36.11
2022-10-11T09:42:07.029Z,35.86
2022-10-11T09:44:51.896Z,35.93
2022-10-11T09:47:26.352Z,35.40
2022-10-11T09:49:56.925Z,35.04
2022-10-11T09:52:23.916Z,34.12
2022-10-11T09:54:59.124Z,34.70
2022-10-11T09:57:33.214Z,35.33
2022-10-11T10:00:18.663Z,35.56
2022-10-11T10:02:58.733Z,35.28
2022-10-11T10:06:29.860Z,34.61
2022-10-11T10:09:24.158Z,35.43
2022-10-11T10:11:50.870Z,35.47
2022-10-11T10:14:28.355Z,35.39
2022-10-11T10:17:00.781Z,34.61
2022-10-11T10:19:27.457Z,34.67
2022-10-11T10:21:54.207Z,34.42
2022-10-11T10:24:27.853Z,35.24
2022-10-11T10:27:15.004Z,35.69
2022-10-11T10:29:41.632Z,36.53
2022-10-11T10:32:22.375Z,37.06
2022-10-11T10:35:13.807Z,37.14
2022-10-11T10:37:59.321Z,37.15
2022-10-11T10:40:58.154Z,36.51
2022-10-11T10:43:30.059Z,36.46
2022-10-11T10:46:23.936Z,36.26
2022-10-11T10:52:03.269Z,35.29
2022-10-11T10:54:48.859Z,35.63
2022-10-11T10:57:32.207Z,35.83
2022-10-11T11:00:19.235Z,35.70
2022-10-11T11:03:23.552Z,35.42
2022-10-11T11:06:26.547Z,36.04
2022-10-11T11:09:06.769Z,35.92
2022-10-11T11:16:48.922Z,35.21
2022-10-11T11:19:31.445Z,35.29
2022-10-11T11:22:07.501Z,35.00
2022-10-11T11:24:47.250Z,35.21
2022-10-11T11:27:36.428Z,34.85
2022-10-11T11:30:17.202Z,34.63
2022-10-11T11:32:45.868Z,34.12
2022-10-11T11:35:25.856Z,34.42
2022-10-11T11:38:01.252Z,35.62
2022-10-11T11:40:38.789Z,34.80
2022-10-11T11:43:21.677Z,34.54
2022-10-11T11:46:00.645Z,34.48
2022-10-11T11:48:27.562Z,34.25
2022-10-11T11:51:08.022Z,34.70
2022-10-11T11:53:46.192Z,35.18
2022-10-11T11:56:26.371Z,35.16
2022-10-11T11:59:03.276Z,35.06
2022-10-11T12:01:35.894Z,35.21
2022-10-11T12:04:05.120Z,35.42
2022-10-11T12:06:32.882Z,35.07
2022-10-11T12:09:03.700Z,35.11
2022-10-11T12:11:42.092Z,35.09
2022-10-11T12:14:27.545Z,35.48
2022-10-11T12:17:19.649Z,35.85
2022-10-11T12:20:17.004Z,35.94
2022-10-11T12:22:49.743Z,36.05
2022-10-11T12:25:18.665Z,35.89
2022-10-11T12:27:47.376Z,36.11
2022-10-11T12:30:59.139Z,36.06
2022-10-11T12:33:45.949Z,36.35
2022-10-11T12:36:31.181Z,36.34
2022-10-11T12:39:19.638Z,36.24
2022-10-11T12:41:50.625Z,36.33
2022-10-11T12:44:27.300Z,35.70
2022-10-11T12:46:54.066Z,35.80
2022-10-11T12:49:24.012Z,35.56
2022-10-11T12:52:04.655Z,35.09
2022-10-11T12:54:37.380Z,34.54
2022-10-11T12:57:23.161Z,34.20
2022-10-11T12:59:49.880Z,34.06
2022-10-11T13:02:44.486Z,33.89
2022-10-11T13:05:30.835Z,33.74
2022-10-11T13:08:02.534Z,33.38
2022-10-11T13:10:33.504Z,32.62
2022-10-11T13:13:04.253Z,32.23
2022-10-11T13:15:30.966Z,32.35
2022-10-11T13:17:59.173Z,32.09
2022-10-11T13:20:28.302Z,31.64
2022-10-11T13:22:55.463Z,31.58
2022-10-11T13:25:36.946Z,31.20
2022-10-11T13:28:03.716Z,30.66
2022-10-11T13:30:34.504Z,30.59
2022-10-11T13:33:01.341Z,30.91
2022-10-11T13:35:37.834Z,30.73
2022-10-11T13:38:05.218Z,30.57
2022-10-11T13:40:32.194Z,30.43
2022-10-11T13:42:59.070Z,30.08
2022-10-11T13:45:27.493Z,31.02
2022-10-11T13:47:54.461Z,31.66
2022-10-11T13:50:31.742Z,32.09
2022-10-11T13:53:10.718Z,32.23
2022-10-11T13:55:53.767Z,33.34
2022-10-11T13:58:40.605Z,36.36
2022-10-11T14:01:20.918Z,37.82
2022-10-11T14:03:49.825Z,38.57
2022-10-11T14:06:16.457Z,39.42
2022-10-11T14:08:45.190Z,40.17
2022-10-11T14:11:12.316Z,40.68
2022-10-11T14:13:40.028Z,41.16
2022-10-11T14:16:15.877Z,41.84
2022-10-11T14:18:57.771Z,42.28
2022-10-11T14:21:45.266Z,42.31
2022-10-11T14:24:12.245Z,42.66
2022-10-11T14:26:40.402Z,42.88
2022-10-11T14:29:09.395Z,43.22
2022-10-11T14:31:41.505Z,44.04
2022-10-11T14:34:11.798Z,44.73
2022-10-11T14:36:39.601Z,45.66
2022-10-11T14:39:13.774Z,46.48
2022-10-11T14:41:40.625Z,47.12
2022-10-11T14:44:07.328Z,47.43
2022-10-11T14:46:35.892Z,47.92
2022-10-11T14:49:02.593Z,48.37
2022-10-11T14:51:31.213Z,48.44
2022-10-11T14:53:58.102Z,48.41
2022-10-11T14:56:24.877Z,48.76
2022-10-11T14:58:51.767Z,48.66
2022-10-11T15:01:18.461Z,48.93
2022-10-11T15:03:45.197Z,49.61
2022-10-11T15:06:18.607Z,50.76
2022-10-11T15:08:45.326Z,51.56
2022-10-11T15:11:13.201Z,51.89
2022-10-11T15:13:39.887Z,52.43
2022-10-11T15:16:07.495Z,52.95
2022-10-11T15:18:34.455Z,53.34
2022-10-11T15:21:01.110Z,53.86
2022-10-11T15:23:28.149Z,54.14
2022-10-11T15:25:54.770Z,54.52
2022-10-11T15:28:30.614Z,54.75
2022-10-11T15:30:57.593Z,55.26
2022-10-11T15:33:24.311Z,55.51
2022-10-11T15:35:51.487Z,55.85
2022-10-11T15:38:20.816Z,55.90
2022-10-11T15:40:47.776Z,56.15
2022-10-11T15:43:14.985Z,56.05
2022-10-11T15:45:41.841Z,56.05
2022-10-11T15:48:11.861Z,56.09
2022-10-11T15:50:38.663Z,56.32
2022-10-11T15:53:07.232Z,56.73
2022-10-11T15:55:34.661Z,57.00
2022-10-11T15:58:01.852Z,57.52
2022-10-11T16:00:28.747Z,57.60
2022-10-11T16:02:55.527Z,57.65
2022-10-11T16:05:24.740Z,57.66
2022-10-11T16:07:52.042Z,57.67
2022-10-11T16:10:18.866Z,57.74
2022-10-11T16:12:45.832Z,57.97
2022-10-11T16:15:12.605Z,58.29
2022-10-11T16:17:39.244Z,58.59
2022-10-11T16:20:06.990Z,58.95
2022-10-11T16:22:34.472Z,59.25
2022-10-11T16:25:02.271Z,59.32
2022-10-11T16:27:29.060Z,59.60
2022-10-11T16:29:55.857Z,59.60
2022-10-11T16:32:23.298Z,59.83
2022-10-11T16:34:50.139Z,59.96
2022-10-11T19:52:49.250Z,75.20
2022-10-11T19:55:16.819Z,73.74
2022-10-11T19:57:43.734Z,72.98
2022-10-11T20:00:11.858Z,72.64
2022-10-11T20:03:35.876Z,72.35
2022-10-11T20:06:05.899Z,72.20
2022-10-11T20:08:33.821Z,72.19
2022-10-11T20:11:05.049Z,72.28
2022-10-11T20:13:35.041Z,72.27
2022-10-11T20:16:13.773Z,72.45
2022-10-11T20:18:51.100Z,72.51
2022-10-11T20:21:22.527Z,72.56
2022-10-11T20:23:51.065Z,72.38
2022-10-11T20:26:23.324Z,72.24
2022-10-11T20:28:56.104Z,72.58
2022-10-11T20:31:33.140Z,72.57
2022-10-11T20:34:02.249Z,72.60
2022-10-11T20:36:30.492Z,72.63
2022-10-11T20:39:01.383Z,72.78
2022-10-11T20:41:34.148Z,72.54
2022-10-11T20:44:02.537Z,72.64
2022-10-11T20:46:31.867Z,72.51
2022-10-11T20:49:02.219Z,72.27
2022-10-11T20:51:32.211Z,72.35
2022-10-11T20:54:00.573Z,72.38
2022-10-11T20:56:30.178Z,72.51
2022-10-11T20:59:01.645Z,72.64
2022-10-11T21:01:39.698Z,72.90
2022-10-11T21:04:08.146Z,72.76
2022-10-11T21:06:37.283Z,72.83
2022-10-11T21:09:04.488Z,72.91
2022-10-11T21:11:32.395Z,72.72
2022-10-11T21:14:04.053Z,72.81
2022-10-11T21:16:31.097Z,72.66
2022-10-11T21:18:59.399Z,72.71
2022-10-11T21:21:26.932Z,72.75
2022-10-11T21:23:58.961Z,72.83
2022-10-11T21:26:26.502Z,72.77
2022-10-11T21:28:53.325Z,72.85
2022-10-11T21:31:20.691Z,72.90
2022-10-11T21:33:47.595Z,73.20
2022-10-11T21:36:16.150Z,73.28
2022-10-11T21:38:43.462Z,73.36
2022-10-11T21:41:14.956Z,73.82
2022-10-11T21:43:41.959Z,73.99
2022-10-11T21:46:14.324Z,74.10
2022-10-11T21:48:41.375Z,74.19
2022-10-11T21:51:16.915Z,74.11
2022-10-11T21:53:44.184Z,74.47
2022-10-11T21:56:11.396Z,74.55
2022-10-11T21:58:38.550Z,74.55
2022-10-11T22:01:06.192Z,74.86
2022-10-11T22:03:33.186Z,74.86
2022-10-11T22:06:03.691Z,75.00
2022-10-11T22:08:31.288Z,75.04
2022-10-11T22:10:59.677Z,75.16
2022-10-11T22:13:27.371Z,75.29
2022-10-11T22:15:56.495Z,75.46
2022-10-11T22:18:30.907Z,75.44
2022-10-11T22:21:09.731Z,75.42
2022-10-11T22:23:36.738Z,75.46
2022-10-11T22:26:08.682Z,75.69
2022-10-11T22:28:35.944Z,75.76
2022-10-11T22:31:04.960Z,75.86
2022-10-11T22:33:32.488Z,76.00
2022-10-11T22:36:00.087Z,76.08
2022-10-11T22:38:27.376Z,76.22
2022-10-11T22:40:55.447Z,76.02
2022-10-11T22:43:22.940Z,75.93
2022-10-11T22:45:50.618Z,76.12
2022-10-11T22:48:17.940Z,76.04
2022-10-11T22:50:44.779Z,76.22
2022-10-11T22:53:12.439Z,76.29
2022-10-11T22:55:39.329Z,76.17
2022-10-11T22:58:14.879Z,76.25
2022-10-11T23:01:04.749Z,76.35
2022-10-11T23:21:53.428Z,76.53
